Time;durP1;ratioP1;P1;durP2;ratioP2;P2;SDS_P1;SDS_P2;PMS_P1;PMS_P2;Temp;Humidity;BMP_temperature;BMP_pressure;BME280_temperature;BME280_humidity;BME280_pressure;Samples;Min_cycle;Max_cycle;Signal;HPM_P1;HPM_P2
2022/12/19 00:01:03;;;;;;;;;;;;;;;-144.99;75.25;52643.78;5022771;28;19942;-75
2022/12/19 00:03:30;;;;;;;;;;;;;;;-144.99;75.33;52643.78;5019870;28;19929;-73
2022/12/19 00:05:57;;;;;;;;;;;;;;;-144.99;75.26;52611.16;5027172;23;19933;-75
2022/12/19 00:08:23;;;;;;;;;;;;;;;-144.99;75.24;52656.00;4988364;28;19933;-72
2022/12/19 00:10:55;;;;;;;;;;;;;;;-144.99;75.51;52627.47;4989812;28;19933;-72
2022/12/19 00:13:22;;;;;;;;;;;;;;;-144.99;75.65;52660.09;4991110;28;19926;-72
2022/12/19 00:15:49;;;;;;;;;;;;;;;-144.99;75.74;52603.00;4988499;28;19929;-73
2022/12/19 00:18:15;;;;;;;;;;;;;;;-144.99;75.75;52619.31;4986536;28;19936;-74
2022/12/19 00:20:42;;;;;;;;;;;;;;;-144.99;76.16;52619.31;4986186;28;19930;-72
2022/12/19 00:23:09;;;;;;;;;;;;;;;-144.99;76.27;52619.31;4985919;28;19925;-74
2022/12/19 00:25:35;;;;;;;;;;;;;;;-144.99;76.40;52623.38;4986267;28;19926;-73
2022/12/19 00:28:06;;;;;;;;;;;;;;;-144.99;76.50;52617.28;4986501;28;20275;-73
2022/12/19 00:30:33;;;;;;;;;;;;;;;-144.99;76.39;52611.16;4985217;28;20321;-73
2022/12/19 00:33:00;;;;;;;;;;;;;;;-144.99;76.11;52635.63;4986561;28;20360;-74
2022/12/19 00:35:26;;;;;;;;;;;;;;;-144.99;76.32;52619.31;4981628;28;20107;-73
2022/12/19 00:37:53;;;;;;;;;;;;;;;-144.99;76.24;52674.34;4986140;28;19930;-74
2022/12/19 00:40:20;;;;;;;;;;;;;;;-144.99;76.26;52592.81;4986526;28;19932;-77
2022/12/19 00:42:46;;;;;;;;;;;;;;;-144.99;76.34;52668.22;4992526;28;19927;-78
2022/12/19 00:45:14;;;;;;;;;;;;;;;-144.99;76.54;52627.47;5008531;28;19926;-81
2022/12/19 00:47:43;;;;;;;;;;;;;;;-144.99;76.28;52635.63;4990710;28;22098;-72
2022/12/19 00:50:10;;;;;;;;;;;;;;;-144.99;76.28;52623.38;4985785;28;19926;-72
2022/12/19 00:52:36;;;;;;;;;;;;;;;-144.99;76.50;52686.59;4985056;28;20439;-72
2022/12/19 00:55:03;;;;;;;;;;;;;;;-144.99;76.38;52656.00;4985392;28;20366;-72
2022/12/19 00:57:29;;;;;;;;;;;;;;;-144.99;76.02;52649.88;4984703;28;19933;-73
2022/12/19 00:59:56;;;;;;;;;;;;;;;-144.99;76.01;52670.28;4984100;28;19949;-72
2022/12/19 01:02:24;;;;;;;;;;;;;;;-144.99;75.85;52664.16;4985026;28;19987;-74
2022/12/19 01:04:50;;;;;;;;;;;;;;;-144.99;76.11;52582.63;4985463;28;19976;-73
2022/12/19 01:07:17;;;;;;;;;;;;;;;-144.99;76.17;52664.16;4986047;28;19926;-72
2022/12/19 01:09:44;;;;;;;;;;;;;;;-144.99;76.02;52647.84;4985377;28;19925;-74
2022/12/19 01:14:55;;;;;;;;;;;;;;;-144.99;76.03;52627.47;4984016;28;19971;-73
2022/12/19 01:17:23;;;;;;;;;;;;;;;-144.99;76.27;52672.31;4987050;28;20008;-72
2022/12/19 01:19:50;;;;;;;;;;;;;;;-144.99;76.22;52623.38;4985445;28;19925;-71
2022/12/19 01:22:17;;;;;;;;;;;;;;;-144.99;76.09;52627.47;4985090;28;20317;-78
2022/12/19 01:24:43;;;;;;;;;;;;;;;-144.99;76.30;52641.72;4992042;28;20496;-74
2022/12/19 01:27:10;;;;;;;;;;;;;;;-144.99;76.42;52625.44;5003970;28;20024;-77
2022/12/19 01:29:36;;;;;;;;;;;;;;;-144.99;76.57;52623.38;4999285;28;20247;-76
2022/12/19 01:32:03;;;;;;;;;;;;;;;-144.99;76.70;52623.38;4985667;28;19933;-75
2022/12/19 01:34:31;;;;;;;;;;;;;;;-144.99;76.60;52643.78;4987521;28;19952;-73
2022/12/19 01:36:58;;;;;;;;;;;;;;;-144.99;76.73;52664.16;4990058;28;19929;-73
2022/12/19 01:39:24;;;;;;;;;;;;;;;-144.99;76.71;52631.53;4988709;28;20329;-71
2022/12/19 01:41:51;;;;;;;;;;;;;;;-144.99;76.59;52656.00;4989031;28;20374;-73
2022/12/19 01:44:18;;;;;;;;;;;;;;;-144.99;76.50;52631.53;4987729;28;19988;-76
2022/12/19 01:46:46;;;;;;;;;;;;;;;-144.99;76.59;52637.66;4989535;28;20489;-73
2022/12/19 01:49:14;;;;;;;;;;;;;;;-144.99;76.38;52623.38;4989404;28;19926;-72
2022/12/19 01:51:45;;;;;;;;;;;;;;;-144.99;76.15;52651.94;4988976;28;20362;-71
2022/12/19 01:54:13;;;;;;;;;;;;;;;-144.99;76.18;52615.25;4988716;28;19926;-71
2022/12/19 01:56:41;;;;;;;;;;;;;;;-144.99;76.31;52639.69;4989362;28;19926;-74
2022/12/19 01:59:10;;;;;;;;;;;;;;;-144.99;76.25;52629.50;4986935;28;19949;-73
2022/12/19 02:01:37;;;;;;;;;;;;;;;-144.99;76.22;52666.19;4988765;28;19930;-72
2022/12/19 02:04:04;;;;;;;;;;;;;;;-144.99;76.20;52647.84;4988907;28;20448;-73
2022/12/19 02:06:31;;;;;;;;;;;;;;;-144.99;75.97;52629.50;4991670;28;19984;-76
2022/12/19 02:08:59;;;;;;;;;;;;;;;-144.99;75.75;52627.47;5002111;28;19930;-79
2022/12/19 02:11:26;;;;;;;;;;;;;;;-144.99;75.90;52643.78;5007627;28;19930;-75
2022/12/19 02:13:52;;;;;;;;;;;;;;;-144.99;75.89;52635.63;4991965;28;20416;-74
2022/12/19 02:16:24;;;;;;;;;;;;;;;-144.99;75.90;52619.31;4988666;28;19925;-73
2022/12/19 02:18:54;;;;;;;;;;;;;;;-144.99;75.85;52635.63;4988796;28;19941;-72
2022/12/19 02:21:29;;;;;;;;;;;;;;;-144.99;75.83;52631.53;4988965;28;20047;-73
2022/12/19 02:24:19;;;;;;;;;;;;;;;-144.99;76.09;52656.00;4988375;28;20009;-72
2022/12/19 02:27:01;;;;;;;;;;;;;;;-144.99;76.16;52623.38;4989108;28;20025;-70
2022/12/19 02:29:45;;;;;;;;;;;;;;;-144.99;76.57;52629.50;4986161;28;19929;-72
2022/12/19 02:32:15;;;;;;;;;;;;;;;-144.99;76.84;52643.78;4978226;28;19926;-73
2022/12/19 02:34:44;;;;;;;;;;;;;;;-144.99;76.68;52639.69;4987750;28;20291;-71
2022/12/19 02:37:13;;;;;;;;;;;;;;;-144.99;77.25;52651.94;4988883;28;20282;-73
2022/12/19 02:39:42;;;;;;;;;;;;;;;-144.99;77.62;52619.31;4988230;28;20852;-74
2022/12/19 02:42:11;;;;;;;;;;;;;;;-144.99;77.44;52627.47;4988554;28;19984;-72
2022/12/19 02:44:39;;;;;;;;;;;;;;;-144.99;77.73;52619.31;4986444;28;19984;-74
2022/12/19 02:47:07;;;;;;;;;;;;;;;-144.99;77.85;52607.09;4989035;28;20313;-74
2022/12/19 02:49:35;;;;;;;;;;;;;;;-144.99;78.43;52623.38;4988244;28;19933;-75
2022/12/19 02:52:08;;;;;;;;;;;;;;;-144.99;78.79;52619.31;4987037;28;20398;-72
2022/12/19 02:54:35;;;;;;;;;;;;;;;-144.99;79.27;52664.16;4988291;28;19934;-71
2022/12/19 02:57:07;;;;;;;;;;;;;;;-144.99;79.96;52647.84;4990467;28;20378;-74
2022/12/19 02:59:40;;;;;;;;;;;;;;;-144.99;80.39;52627.47;4986529;28;20294;-74
2022/12/19 03:02:10;;;;;;;;;;;;;;;-144.99;81.15;52627.47;4984650;28;19963;-73
2022/12/19 03:04:45;;;;;;;;;;;;;;;-144.99;83.11;52643.78;4987395;28;19926;-70
2022/12/19 03:07:17;;;;;;;;;;;;;;;-144.99;84.01;52627.47;4987892;28;19926;-71
2022/12/19 03:09:46;;;;;;;;;;;;;;;-144.99;84.45;52623.38;4987049;28;19933;-72
2022/12/19 03:12:17;;;;;;;;;;;;;;;-144.99;85.65;52615.25;4986106;28;20317;-71
2022/12/19 03:14:44;;;;;;;;;;;;;;;-144.99;86.93;52590.78;4985941;28;19926;-72
2022/12/19 03:17:10;;;;;;;;;;;;;;;-144.99;87.01;52653.97;4987808;28;19929;-73
2022/12/19 03:19:38;;;;;;;;;;;;;;;-144.99;87.70;52643.78;4987079;28;19945;-73
2022/12/19 03:22:07;;;;;;;;;;;;;;;-144.99;87.76;52649.88;4987500;28;19934;-73
2022/12/19 03:24:33;;;;;;;;;;;;;;;-144.99;88.11;52611.16;4987671;28;20394;-74
2022/12/19 03:27:02;;;;;;;;;;;;;;;-144.99;88.67;52603.00;4988157;28;19929;-74
2022/12/19 03:29:30;;;;;;;;;;;;;;;-144.99;88.81;52658.03;4986331;28;19930;-71
2022/12/19 03:31:59;;;;;;;;;;;;;;;-144.99;89.39;52623.38;4988175;28;20317;-71
2022/12/19 03:34:28;;;;;;;;;;;;;;;-144.99;89.83;52653.97;4987456;28;19930;-72
2022/12/19 03:36:57;;;;;;;;;;;;;;;-144.99;89.99;52651.94;5005941;28;19914;-77
2022/12/19 03:39:26;;;;;;;;;;;;;;;-144.99;90.74;52607.09;5006403;28;20267;-74
2022/12/19 03:44:39;;;;;;;;;;;;;;;-144.99;91.11;52637.66;4976359;28;19949;-73
2022/12/19 03:47:08;;;;;;;;;;;;;;;-144.99;91.49;52651.94;4988224;28;19926;-73
2022/12/19 03:49:34;;;;;;;;;;;;;;;-144.99;91.82;52631.53;4987414;28;20408;-73
2022/12/19 03:52:07;;;;;;;;;;;;;;;-144.99;92.08;52582.63;4984172;28;19933;-75
2022/12/19 03:54:38;;;;;;;;;;;;;;;-144.99;92.22;52613.19;4978444;28;19932;-71
2022/12/19 03:57:07;;;;;;;;;;;;;;;-144.99;92.31;52590.78;4987366;28;19926;-72
2022/12/19 03:59:36;;;;;;;;;;;;;;;-144.99;92.72;52637.66;4986180;28;20016;-71
2022/12/19 04:02:04;;;;;;;;;;;;;;;-144.99;93.16;52623.38;4988974;28;19939;-71
2022/12/19 04:04:31;;;;;;;;;;;;;;;-144.99;93.68;52643.78;4991600;28;19937;-71
2022/12/19 04:06:58;;;;;;;;;;;;;;;-144.99;93.57;52637.66;4991403;28;19985;-72
2022/12/19 04:09:25;;;;;;;;;;;;;;;-144.99;94.00;52627.47;4987148;28;20381;-71
2022/12/19 04:11:55;;;;;;;;;;;;;;;-144.99;94.58;52627.47;4985603;28;19937;-71
2022/12/19 04:14:25;;;;;;;;;;;;;;;-144.99;94.53;52631.53;4985462;28;19936;-69
2022/12/19 04:16:55;;;;;;;;;;;;;;;-144.99;95.32;52621.34;4986954;28;20453;-71
2022/12/19 04:19:24;;;;;;;;;;;;;;;-144.99;95.62;52639.69;4986727;28;19941;-71
2022/12/19 04:21:53;;;;;;;;;;;;;;;-144.99;95.33;52639.69;5003834;28;19936;-74
2022/12/19 04:24:24;;;;;;;;;;;;;;;-144.99;96.26;52617.28;4992869;28;19933;-70
2022/12/19 04:26:52;;;;;;;;;;;;;;;-144.99;96.19;52603.00;4987591;28;19926;-73
2022/12/19 04:29:20;;;;;;;;;;;;;;;-144.99;95.57;52594.84;4986084;28;19930;-72
2022/12/19 04:31:48;;;;;;;;;;;;;;;-144.99;95.91;52607.09;4986753;28;19976;-72
2022/12/19 04:34:17;;;;;;;;;;;;;;;-144.99;96.07;52651.94;4986733;28;19937;-73
2022/12/19 04:36:44;;;;;;;;;;;;;;;-144.99;96.67;52615.25;4987291;28;20293;-72
2022/12/19 04:39:10;;;;;;;;;;;;;;;-144.99;96.72;52590.78;4987311;28;19929;-73
2022/12/19 04:41:37;;;;;;;;;;;;;;;-144.99;96.45;52623.38;4987390;28;19925;-72
2022/12/19 04:44:04;;;;;;;;;;;;;;;-144.99;96.93;52582.63;4985644;28;20274;-73
2022/12/19 04:46:32;;;;;;;;;;;;;;;-144.99;97.04;52637.66;4986455;28;19930;-73
2022/12/19 04:48:58;;;;;;;;;;;;;;;-144.99;96.96;52607.09;4986462;28;19926;-72
2022/12/19 04:51:25;;;;;;;;;;;;;;;-144.99;97.95;52643.78;4986726;28;20221;-73
2022/12/19 04:53:51;;;;;;;;;;;;;;;-144.99;98.36;52598.94;4985538;28;20370;-71
2022/12/19 04:56:18;;;;;;;;;;;;;;;-144.99;98.35;52609.13;4986144;28;19926;-73
2022/12/19 04:58:45;;;;;;;;;;;;;;;-144.99;97.90;52598.94;4984732;28;19932;-71
2022/12/19 05:01:12;;;;;;;;;;;;;;;-144.99;99.28;52586.69;4984882;28;19929;-71
2022/12/19 05:03:41;;;;;;;;;;;;;;;-144.99;99.59;52641.72;4985609;28;20778;-72
2022/12/19 05:06:09;;;;;;;;;;;;;;;-144.99;99.37;52607.09;4999767;28;19930;-70
2022/12/19 05:08:36;;;;;;;;;;;;;;;-144.99;99.39;52631.53;4996941;28;19925;-72
2022/12/19 05:11:03;;;;;;;;;;;;;;;-144.99;99.90;52586.69;4989607;28;20313;-73
2022/12/19 05:13:30;;;;;;;;;;;;;;;-144.99;100.00;52619.31;4985540;28;19930;-72
2022/12/19 05:15:56;;;;;;;;;;;;;;;-144.99;100.00;52598.94;4985197;28;19933;-73
2022/12/19 05:18:23;;;;;;;;;;;;;;;-144.99;100.00;52619.31;4985880;28;20412;-74
2022/12/19 05:20:51;;;;;;;;;;;;;;;-144.99;100.00;52643.78;4985899;28;19926;-72
2022/12/19 05:23:18;;;;;;;;;;;;;;;-144.99;100.00;52623.38;4985060;28;19932;-74
2022/12/19 05:25:44;;;;;;;;;;;;;;;-144.99;100.00;52578.53;4985149;28;19926;-71
2022/12/19 05:28:11;;;;;;;;;;;;;;;-144.99;100.00;52623.38;4986144;28;20358;-72
2022/12/19 05:30:37;;;;;;;;;;;;;;;-144.99;100.00;52609.13;4984378;28;19934;-73
2022/12/19 05:33:04;;;;;;;;;;;;;;;-144.99;100.00;52619.31;4983826;28;19934;-72
2022/12/19 05:35:31;;;;;;;;;;;;;;;-144.99;100.00;52627.47;4975880;28;19936;-69
2022/12/19 05:37:59;;;;;;;;;;;;;;;-144.99;100.00;52617.28;4985859;28;19930;-72
2022/12/19 05:40:25;;;;;;;;;;;;;;;-144.99;100.00;52635.63;4985780;28;20350;-73
2022/12/19 05:42:52;;;;;;;;;;;;;;;-144.99;100.00;52598.94;4985302;28;19937;-72
2022/12/19 05:45:19;;;;;;;;;;;;;;;-144.99;100.00;52588.75;4984536;28;19945;-72
2022/12/19 05:47:46;;;;;;;;;;;;;;;-144.99;100.00;52611.16;4986286;28;19925;-72
2022/12/19 05:50:13;;;;;;;;;;;;;;;-144.99;100.00;52603.00;4985772;28;19933;-74
2022/12/19 05:52:39;;;;;;;;;;;;;;;-144.99;100.00;52603.00;4984735;28;20434;-73
2022/12/19 05:55:08;;;;;;;;;;;;;;;-144.99;100.00;52574.47;4985919;28;20287;-71
2022/12/19 05:57:35;;;;;;;;;;;;;;;-144.99;100.00;52594.84;4985477;28;20397;-72
2022/12/19 06:00:01;;;;;;;;;;;;;;;-144.99;100.00;52594.84;4984204;28;20310;-72
2022/12/19 06:02:31;;;;;;;;;;;;;;;-144.99;100.00;52598.94;4985100;28;19936;-71
2022/12/19 06:04:58;;;;;;;;;;;;;;;-144.99;100.00;52596.88;4985609;28;19933;-72
2022/12/19 06:07:25;;;;;;;;;;;;;;;-144.99;100.00;52615.25;4316722;23;10002561;-74
2022/12/19 06:09:51;;;;;;;;;;;;;;;-144.99;100.00;52623.38;5003544;28;20055;-75
2022/12/19 06:12:19;;;;;;;;;;;;;;;-144.99;100.00;52582.63;5001720;28;19944;-75
2022/12/19 06:14:46;;;;;;;;;;;;;;;-144.99;100.00;52639.69;5003537;28;19935;-74
2022/12/19 06:17:12;;;;;;;;;;;;;;;-144.99;100.00;52582.63;5005684;28;19934;-75
2022/12/19 06:19:39;;;;;;;;;;;;;;;-144.99;100.00;52621.34;5007372;28;20353;-75
2022/12/19 06:22:05;;;;;;;;;;;;;;;-144.99;100.00;52623.38;5007859;28;19926;-74
2022/12/19 06:24:32;;;;;;;;;;;;;;;-144.99;100.00;52607.09;5007984;28;20266;-75
2022/12/19 06:26:59;;;;;;;;;;;;;;;-144.99;100.00;52594.84;5007608;28;19925;-75
2022/12/19 06:29:27;;;;;;;;;;;;;;;-144.99;100.00;52582.63;5006727;28;19937;-75
2022/12/19 06:31:53;;;;;;;;;;;;;;;-144.99;100.00;52619.31;5006747;28;19934;-75
2022/12/19 06:34:20;;;;;;;;;;;;;;;-144.99;100.00;52584.66;5007510;28;20397;-75
2022/12/19 06:36:46;;;;;;;;;;;;;;;-144.99;100.00;52635.63;5007343;28;19933;-75
2022/12/19 06:39:14;;;;;;;;;;;;;;;-144.99;100.00;52631.53;5007354;28;19993;-75
2022/12/19 06:44:24;;;;;;;;;;;;;;;-144.99;100.00;52578.53;4993644;28;19967;-75
2022/12/19 06:46:53;;;;;;;;;;;;;;;-144.99;100.00;52594.84;5007606;28;19925;-75
2022/12/19 06:49:20;;;;;;;;;;;;;;;-144.99;100.00;52550.00;5007238;28;19932;-75
2022/12/19 06:51:46;;;;;;;;;;;;;;;-144.99;100.00;52588.75;5006255;28;20015;-74
2022/12/19 06:54:13;;;;;;;;;;;;;;;-144.99;100.00;52627.47;5006492;28;19929;-75
2022/12/19 06:56:40;;;;;;;;;;;;;;;-144.99;100.00;52619.31;5007133;28;19936;-76
2022/12/19 06:59:08;;;;;;;;;;;;;;;-144.99;100.00;52607.09;5005437;28;19940;-75
2022/12/19 07:01:39;;;;;;;;;;;;;;;-144.99;100.00;52615.25;4994913;28;19925;-75
2022/12/19 07:04:09;;;;;;;;;;;;;;;-144.99;100.00;52603.00;4999493;28;19925;-76
2022/12/19 07:06:36;;;;;;;;;;;;;;;-144.99;100.00;52582.63;5000481;28;19936;-75
2022/12/19 07:09:02;;;;;;;;;;;;;;;-144.99;100.00;52586.69;4999533;28;19934;-75
2022/12/19 07:11:29;;;;;;;;;;;;;;;-144.99;100.00;52594.84;5004467;28;19944;-76
2022/12/19 07:13:56;;;;;;;;;;;;;;;-144.99;100.00;52590.78;5005943;28;20369;-75
2022/12/19 07:16:23;;;;;;;;;;;;;;;-144.99;100.00;52603.00;5006452;28;19929;-75
2022/12/19 07:18:50;;;;;;;;;;;;;;;-144.99;100.00;52619.31;5007185;28;19933;-75
2022/12/19 07:21:18;;;;;;;;;;;;;;;-144.99;100.00;52603.00;5008409;28;19929;-75
2022/12/19 07:23:45;;;;;;;;;;;;;;;-144.99;100.00;52562.25;5006622;28;19930;-75
2022/12/19 07:26:12;;;;;;;;;;;;;;;-144.99;100.00;52594.84;5003764;28;19936;-75
2022/12/19 07:28:39;;;;;;;;;;;;;;;-144.99;100.00;52615.25;5007208;28;19929;-75
2022/12/19 07:31:05;;;;;;;;;;;;;;;-144.99;100.00;52594.84;5005625;28;19925;-75
2022/12/19 07:33:32;;;;;;;;;;;;;;;-144.99;100.00;52598.94;5031311;28;19914;-75
2022/12/19 07:35:59;;;;;;;;;;;;;;;-144.99;100.00;52615.25;5029321;28;19940;-76
2022/12/19 07:38:27;;;;;;;;;;;;;;;-144.99;100.00;52627.47;5030650;28;19928;-76
2022/12/19 07:40:53;;;;;;;;;;;;;;;-144.99;100.00;52603.00;5030853;28;19934;-76
2022/12/19 07:43:20;;;;;;;;;;;;;;;-144.99;100.00;52621.34;5029811;28;19920;-76
2022/12/19 07:45:46;;;;;;;;;;;;;;;-144.99;100.00;52598.94;5027120;28;19936;-76
2022/12/19 07:48:13;;;;;;;;;;;;;;;-144.99;100.00;52594.84;5028720;28;19936;-76
2022/12/19 07:50:40;;;;;;;;;;;;;;;-144.99;100.00;52598.94;5029415;28;19913;-76
2022/12/19 07:53:07;;;;;;;;;;;;;;;-144.99;100.00;52594.84;5028684;28;19926;-76
2022/12/19 07:55:35;;;;;;;;;;;;;;;-144.99;100.00;52605.03;5026648;28;20231;-76
2022/12/19 07:58:01;;;;;;;;;;;;;;;-144.99;100.00;52582.63;5023395;28;20005;-76
2022/12/19 08:00:29;;;;;;;;;;;;;;;-144.99;100.00;52605.03;5021196;28;19940;-77
2022/12/19 08:02:56;;;;;;;;;;;;;;;-144.99;100.00;52578.53;5026531;28;19996;-76
2022/12/19 08:05:23;;;;;;;;;;;;;;;-144.99;100.00;52598.94;5024966;28;20038;-76
2022/12/19 08:07:55;;;;;;;;;;;;;;;-144.99;100.00;52611.16;5023757;28;19937;-76
2022/12/19 08:10:22;;;;;;;;;;;;;;;-144.99;100.00;52607.09;5018987;28;20356;-76
2022/12/19 08:12:50;;;;;;;;;;;;;;;-144.99;100.00;52574.47;5006618;28;20054;-77
2022/12/19 08:15:17;;;;;;;;;;;;;;;-144.99;100.00;52609.13;5005684;28;19929;-76
2022/12/19 08:17:43;;;;;;;;;;;;;;;-144.99;100.00;52578.53;5004968;28;19933;-74
2022/12/19 08:20:11;;;;;;;;;;;;;;;-144.99;100.00;52590.78;5006112;28;19929;-73
2022/12/19 08:22:37;;;;;;;;;;;;;;;-144.99;100.00;52554.09;5005453;28;19926;-76
2022/12/19 08:25:06;;;;;;;;;;;;;;;-144.99;100.00;52586.69;5006388;28;19933;-75
2022/12/19 08:27:33;;;;;;;;;;;;;;;-144.99;100.00;52594.84;5002676;28;19952;-76
2022/12/19 08:30:01;;;;;;;;;;;;;;;-144.99;100.00;52586.69;5003637;28;19984;-76
2022/12/19 08:32:30;;;;;;;;;;;;;;;-144.99;100.00;52584.66;5004320;28;19930;-76
2022/12/19 08:34:57;;;;;;;;;;;;;;;-144.99;100.00;52603.00;5005915;28;19933;-76
2022/12/19 08:37:23;;;;;;;;;;;;;;;-144.99;100.00;52566.31;5004803;28;19933;-75
2022/12/19 08:39:51;;;;;;;;;;;;;;;-144.99;100.00;52611.16;5004280;28;19929;-75
2022/12/19 08:42:17;;;;;;;;;;;;;;;-144.99;100.00;52611.16;5005777;28;19952;-75
2022/12/19 08:44:44;;;;;;;;;;;;;;;-144.99;100.00;52590.78;4996702;28;19972;-75
2022/12/19 08:47:12;;;;;;;;;;;;;;;-144.99;100.00;52603.00;5011952;28;19929;-75
2022/12/19 08:49:39;;;;;;;;;;;;;;;-144.99;100.00;52574.47;5023829;28;20033;-75
2022/12/19 08:52:05;;;;;;;;;;;;;;;-144.99;100.00;52550.00;5016050;28;20049;-76
2022/12/19 08:54:32;;;;;;;;;;;;;;;-144.99;100.00;52578.53;5003539;28;19926;-76
2022/12/19 08:56:59;;;;;;;;;;;;;;;-144.99;100.00;52586.69;5000223;28;20403;-75
2022/12/19 08:59:25;;;;;;;;;;;;;;;-144.99;100.00;52594.84;5006192;28;19929;-76
2022/12/19 09:01:52;;;;;;;;;;;;;;;-144.99;100.00;52590.78;5005813;28;19926;-76
2022/12/19 09:04:20;;;;;;;;;;;;;;;-144.99;100.00;52631.53;4999795;28;19929;-76
2022/12/19 09:06:47;;;;;;;;;;;;;;;-144.99;100.00;52592.81;4995426;28;19934;-76
2022/12/19 09:09:13;;;;;;;;;;;;;;;-144.99;100.00;52594.84;5005827;28;20345;-76
2022/12/19 09:11:40;;;;;;;;;;;;;;;-144.99;100.00;52545.94;5007942;28;19933;-76
2022/12/19 09:14:07;;;;;;;;;;;;;;;-144.99;100.00;52623.38;5005236;28;20452;-76
2022/12/19 09:16:33;;;;;;;;;;;;;;;-144.99;100.00;52566.31;5006847;28;19988;-77
2022/12/19 09:19:00;;;;;;;;;;;;;;;-144.99;100.00;52552.03;5007275;28;20121;-76
2022/12/19 09:21:29;;;;;;;;;;;;;;;-144.99;100.00;52603.00;5006509;28;19929;-76
2022/12/19 09:23:56;;;;;;;;;;;;;;;-144.99;100.00;52578.53;5005031;28;21660;-76
2022/12/19 09:26:24;;;;;;;;;;;;;;;-144.99;100.00;52582.63;5006443;28;20204;-76
2022/12/19 09:28:50;;;;;;;;;;;;;;;-144.99;100.00;52603.00;5005255;28;20389;-77
2022/12/19 09:31:19;;;;;;;;;;;;;;;-144.99;100.00;52566.31;5005669;28;19964;-77
2022/12/19 09:33:46;;;;;;;;;;;;;;;-144.99;100.00;52554.09;5004888;28;20381;-77
2022/12/19 09:36:14;;;;;;;;;;;;;;;-144.99;100.00;52558.16;5003216;28;19937;-77
2022/12/19 09:38:42;;;;;;;;;;;;;;;-144.99;100.00;52598.94;5006434;28;19958;-77
2022/12/19 09:41:19;;;;;;;;;;;;;;;-144.99;100.00;52550.00;5006163;28;20225;-77
2022/12/19 09:43:55;;;;;;;;;;;;;;;-144.99;100.00;52564.28;5001187;28;20361;-76
2022/12/19 09:46:27;;;;;;;;;;;;;;;-144.99;100.00;52566.31;5003488;28;19933;-77
2022/12/19 09:48:55;;;;;;;;;;;;;;;-144.99;100.00;52594.84;5006352;28;20464;-77
2022/12/19 09:51:30;;;;;;;;;;;;;;;-144.99;100.00;52564.28;5006106;28;19929;-76
2022/12/19 09:54:02;;;;;;;;;;;;;;;-144.99;100.00;52550.00;5006535;28;19965;-76
2022/12/19 09:56:30;;;;;;;;;;;;;;;-144.99;100.00;52578.53;5008908;28;20301;-76
2022/12/19 09:59:00;;;;;;;;;;;;;;;-144.99;100.00;52586.69;5009104;28;19941;-75
2022/12/19 10:01:29;;;;;;;;;;;;;;;-144.99;100.00;52574.47;5010623;28;19937;-76
2022/12/19 10:03:59;;;;;;;;;;;;;;;-144.99;100.00;52572.44;5009110;28;20268;-76
2022/12/19 10:06:26;;;;;;;;;;;;;;;-144.99;100.00;52554.09;4993597;28;19925;-76
2022/12/19 10:08:53;;;;;;;;;;;;;;;-144.99;100.00;52594.84;5009442;28;20340;-75
2022/12/19 10:11:32;;;;;;;;;;;;;;;-144.99;100.00;52582.63;4661814;28;9999644;-76
2022/12/19 10:14:09;;;;;;;;;;;;;;;-144.99;100.00;52590.78;5006761;28;19972;-76
2022/12/19 10:16:43;;;;;;;;;;;;;;;-144.99;100.00;52529.63;4990483;28;19929;-76
2022/12/19 10:19:14;;;;;;;;;;;;;;;-144.99;100.00;52550.00;5004452;28;19926;-77
2022/12/19 10:21:45;;;;;;;;;;;;;;;-144.99;100.00;52566.31;5008183;28;20023;-77
2022/12/19 10:24:28;;;;;;;;;;;;;;;-144.99;100.00;52545.94;5007636;28;20470;-77
2022/12/19 10:26:59;;;;;;;;;;;;;;;-144.99;100.00;52594.84;5008985;28;20463;-76
2022/12/19 10:29:43;;;;;;;;;;;;;;;-144.99;100.00;52586.69;5007728;28;19936;-77
2022/12/19 10:32:17;;;;;;;;;;;;;;;-144.99;100.00;52566.31;4998058;28;19933;-77
2022/12/19 10:34:46;;;;;;;;;;;;;;;-144.99;100.00;52570.38;5006423;28;20316;-76
2022/12/19 10:37:16;;;;;;;;;;;;;;;-144.99;100.00;52572.44;5008632;28;19930;-76
2022/12/19 10:39:51;;;;;;;;;;;;;;;-144.99;100.00;52578.53;5008421;28;19929;-76
2022/12/19 10:42:25;;;;;;;;;;;;;;;-144.99;100.00;52545.94;5007986;28;19926;-76
2022/12/19 10:44:52;;;;;;;;;;;;;;;-144.99;100.00;52558.16;5005258;28;19929;-76
2022/12/19 10:47:18;;;;;;;;;;;;;;;-144.99;100.00;52545.94;5004126;28;19969;-77
2022/12/19 10:49:45;;;;;;;;;;;;;;;-144.99;100.00;52578.53;5000981;28;19934;-76
2022/12/19 10:52:12;;;;;;;;;;;;;;;-144.99;100.00;52529.63;5008312;28;19952;-76
2022/12/19 10:54:40;;;;;;;;;;;;;;;-144.99;100.00;52590.78;4999549;28;20017;-76
2022/12/19 10:57:22;;;;;;;;;;;;;;;-144.99;100.00;52586.69;5008080;28;20412;-76
2022/12/19 10:59:54;;;;;;;;;;;;;;;-144.99;100.00;52586.69;5007761;28;19929;-76
2022/12/19 11:02:27;;;;;;;;;;;;;;;-144.99;100.00;52554.09;5008504;28;20319;-79
2022/12/19 11:04:53;;;;;;;;;;;;;;;-144.99;100.00;52558.16;5000951;28;19930;-76
2022/12/19 11:07:21;;;;;;;;;;;;;;;-144.99;100.00;52570.38;5007900;28;20416;-77
2022/12/19 11:09:48;;;;;;;;;;;;;;;-144.99;100.00;52554.09;5007530;28;20619;-76
2022/12/19 11:12:16;;;;;;;;;;;;;;;-144.99;100.00;52570.38;5006562;28;19929;-75
2022/12/19 11:14:50;;;;;;;;;;;;;;;-144.99;100.00;52566.31;5007130;28;20537;-75
2022/12/19 11:17:36;;;;;;;;;;;;;;;-144.99;100.00;52537.78;5005338;28;19940;-76
2022/12/19 11:20:10;;;;;;;;;;;;;;;-144.99;100.00;52529.63;5000064;28;20361;-75
2022/12/19 11:22:37;;;;;;;;;;;;;;;-144.99;100.00;52554.09;5006871;28;19929;-76
2022/12/19 11:25:04;;;;;;;;;;;;;;;-144.99;100.00;52539.81;5009959;28;20249;-76
2022/12/19 11:27:32;;;;;;;;;;;;;;;-144.99;100.00;52592.81;5011040;28;19941;-75
2022/12/19 11:30:01;;;;;;;;;;;;;;;-144.99;100.00;52550.00;5010055;28;19929;-76
2022/12/19 11:32:31;;;;;;;;;;;;;;;-144.99;100.00;52556.13;5011834;28;19930;-76
2022/12/19 11:35:00;;;;;;;;;;;;;;;-144.99;100.00;52521.47;5024861;28;19935;-76
2022/12/19 11:37:30;;;;;;;;;;;;;;;-144.99;100.00;52566.31;5025497;28;19933;-76
2022/12/19 11:40:00;;;;;;;;;;;;;;;-144.99;100.00;52541.84;5025768;28;19914;-76
2022/12/19 11:42:29;;;;;;;;;;;;;;;-144.99;100.00;52541.84;5025781;28;19937;-76
2022/12/19 11:44:58;;;;;;;;;;;;;;;-144.99;100.00;52497.00;5028495;28;19929;-76
2022/12/19 11:47:31;;;;;;;;;;;;;;;-144.99;100.00;52531.66;5028034;28;19929;-76
2022/12/19 11:50:00;;;;;;;;;;;;;;;-144.99;100.00;52570.38;5024412;28;19949;-76
2022/12/19 11:52:35;;;;;;;;;;;;;;;-144.99;100.00;52566.31;5023919;28;20185;-77
2022/12/19 11:55:06;;;;;;;;;;;;;;;-144.99;100.00;52562.25;5028325;28;19935;-76
2022/12/19 11:57:32;;;;;;;;;;;;;;;-144.99;100.00;52550.00;5016442;28;20744;-76
2022/12/19 11:59:59;;;;;;;;;;;;;;;-144.99;100.00;52541.84;5006989;28;19925;-76
2022/12/19 12:02:55;;;;;;;;;;;;;;;-144.99;100.00;52525.56;5005918;28;19960;-76
2022/12/19 12:05:36;;;;;;;;;;;;;;;-144.99;100.00;52578.53;5008167;28;19931;-75
2022/12/19 12:08:19;;;;;;;;;;;;;;;-144.99;100.00;52558.16;5020897;23;20227;-74
2022/12/19 12:10:49;;;;;;;;;;;;;;;-144.99;100.00;52554.09;5003415;28;19926;-75
2022/12/19 12:13:22;;;;;;;;;;;;;;;-144.99;100.00;52582.63;4988103;28;19959;-74
2022/12/19 12:15:53;;;;;;;;;;;;;;;-144.99;100.00;52521.47;4983634;28;19930;-75
2022/12/19 12:18:28;;;;;;;;;;;;;;;-144.99;100.00;52574.47;4966064;28;19941;-73
2022/12/19 12:20:59;;;;;;;;;;;;;;;-144.99;100.00;52586.69;4966139;28;19934;-74
2022/12/19 12:23:28;;;;;;;;;;;;;;;-144.99;100.00;52505.16;4960485;28;20120;-73
2022/12/19 12:25:59;;;;;;;;;;;;;;;-144.99;100.00;52527.59;4963501;28;20420;-74
2022/12/19 12:28:53;;;;;;;;;;;;;;;-144.99;100.00;52556.13;4966120;28;19938;-75
2022/12/19 12:31:29;;;;;;;;;;;;;;;-144.99;100.00;52505.16;4973817;28;19930;-75
2022/12/19 12:34:02;;;;;;;;;;;;;;;-144.99;100.00;52527.59;4974640;28;20386;-75
2022/12/19 12:36:32;;;;;;;;;;;;;;;-144.99;100.00;52566.31;4965241;28;19938;-74